Terminal Aerodrome Forecast
Issued by NWS

Home | Current Version | Previous Version | Graphics & Text | Print | Product List | Glossary On
Versions: 1 2 3 4 5 6 7 8 9 10 11 12 13 14
000
FTUS45 KGGW 111700
TAFSDY
TAF
KSDY 111720Z 1118/1218 36012KT P6SM SCT110
     FM120300 VRB06KT P6SM VCSH SCT100
     FM120600 VRB04KT P6SM BKN090
     FM121200 00000KT P6SM SCT080
      AMD LTD TO CLD VIS AND WIND=

USA.gov is the U.S. government's official web portal to all federal, state and local government web resources and services.